Time;durP1;ratioP1;P1;durP2;ratioP2;P2;SDS_P1;SDS_P2;PMS_P1;PMS_P2;Temp;Humidity;BMP_temperature;BMP_pressure;BME280_temperature;BME280_humidity;BME280_pressure;Samples;Min_cycle;Max_cycle;Signal;HPM_P1;HPM_P2
2022/06/17 00:00:24;;;;;;;18.48;11.88;;;;;;;15.95;80.56;102274.97;5032665;28;20083;-64
2022/06/17 00:02:50;;;;;;;16.08;11.00;;;;;;;15.98;81.26;102267.34;5032602;28;20064;-64
2022/06/17 00:05:15;;;;;;;19.10;12.52;;;;;;;15.99;80.77;102254.72;5032513;28;20121;-65
2022/06/17 00:07:42;;;;;;;22.30;12.85;;;;;;;16.02;80.41;102261.56;5032406;28;20033;-64
2022/06/17 00:10:22;;;;;;;17.92;12.18;;;;;;;16.03;80.08;102252.44;5032476;28;20366;-64
2022/06/17 00:12:47;;;;;;;22.17;12.35;;;;;;;16.05;79.57;102251.22;5032483;28;20032;-64
2022/06/17 00:15:13;;;;;;;29.00;12.73;;;;;;;16.06;80.06;102249.34;5032228;28;20470;-64
2022/06/17 00:18:15;;;;;;;27.23;14.13;;;;;;;16.06;80.18;102246.66;5032486;28;20021;-65
2022/06/17 00:20:34;;;;;;;19.25;12.23;;;;;;;16.05;80.25;102248.53;5032065;28;20033;-64
2022/06/17 00:23:01;;;;;;;24.15;13.60;;;;;;;16.00;79.57;102265.25;5032224;28;20033;-64
2022/06/17 00:25:30;;;;;;;18.83;13.10;;;;;;;15.98;80.44;102263.78;5032220;28;20392;-64
2022/06/17 00:27:56;;;;;;;18.33;12.77;;;;;;;15.92;80.21;102269.97;5032010;28;20499;-64
2022/06/17 00:30:28;;;;;;;20.67;12.70;;;;;;;15.89;80.20;102265.00;5032177;28;20045;-64
2022/06/17 00:32:56;;;;;;;20.15;12.85;;;;;;;15.84;82.51;102262.88;5032094;28;20037;-64
2022/06/17 00:35:24;;;;;;;20.23;13.85;;;;;;;15.77;82.31;102254.78;5031942;28;20021;-64
2022/06/17 00:37:50;;;;;;;22.45;13.93;;;;;;;15.81;81.81;102247.16;5031934;28;20503;-64
2022/06/17 00:40:19;;;;;;;18.83;12.70;;;;;;;15.84;81.87;102254.81;5031689;28;20053;-64
2022/06/17 00:42:45;;;;;;;20.35;13.30;;;;;;;15.80;82.17;102256.25;5031862;28;20489;-64
2022/06/17 00:45:41;;;;;;;18.30;13.25;;;;;;;15.78;81.90;102259.13;5031769;28;20037;-64
2022/06/17 00:48:31;;;;;;;20.45;14.50;;;;;;;15.78;80.88;102261.00;5028476;28;20488;-64
2022/06/17 00:51:02;;;;;;;18.48;11.15;;;;;;;15.75;81.46;102264.09;5031601;28;20491;-65
2022/06/17 00:53:34;;;;;;;18.17;12.85;;;;;;;15.78;81.04;102263.69;5031605;28;20039;-64
2022/06/17 00:56:15;;;;;;;17.90;12.13;;;;;;;15.82;79.93;102266.81;5031599;28;20025;-64
2022/06/17 00:59:00;;;;;;;19.23;13.15;;;;;;;15.84;81.05;102272.81;5031557;28;20032;-64
2022/06/17 01:01:29;;;;;;;20.98;13.32;;;;;;;15.71;82.06;102260.94;5031554;28;20017;-65
2022/06/17 01:04:00;;;;;;;18.30;12.23;;;;;;;15.73;81.87;102276.88;5031420;28;20048;-64
2022/06/17 01:06:30;;;;;;;20.63;12.52;;;;;;;15.70;81.68;102267.34;5031541;28;20029;-65
2022/06/17 01:12:03;;;;;;;20.20;12.70;;;;;;;15.65;82.01;102267.06;5031539;28;20107;-65
2022/06/17 01:14:29;;;;;;;19.08;13.88;;;;;;;15.62;81.83;102269.34;5031216;28;20025;-64
2022/06/17 01:16:56;;;;;;;21.55;12.85;;;;;;;15.59;81.23;102270.56;5031170;28;20076;-64
2022/06/17 01:19:45;;;;;;;18.67;12.02;;;;;;;15.61;80.59;102268.47;5031145;28;20438;-64
2022/06/17 01:22:24;;;;;;;18.13;12.63;;;;;;;15.57;81.87;102264.53;5030973;28;20029;-64
2022/06/17 01:24:52;;;;;;;20.20;13.80;;;;;;;15.55;82.44;102272.78;5031002;28;20047;-64
2022/06/17 01:27:21;;;;;;;20.08;13.90;;;;;;;15.47;81.50;102254.09;5030740;28;20029;-65
2022/06/17 01:29:47;;;;;;;20.67;13.23;;;;;;;15.53;81.30;102257.88;5030754;28;20048;-64
2022/06/17 01:32:16;;;;;;;19.05;12.77;;;;;;;15.48;81.51;102260.31;5030811;28;20056;-64
2022/06/17 01:34:42;;;;;;;19.75;13.82;;;;;;;15.47;81.75;102253.28;5030821;28;20037;-64
2022/06/17 01:37:09;;;;;;;24.52;13.80;;;;;;;15.43;82.31;102255.53;5030811;28;20030;-64
2022/06/17 01:39:35;;;;;;;19.00;12.02;;;;;;;15.43;82.37;102250.16;5029406;28;20445;-64
2022/06/17 01:42:00;;;;;;;20.42;13.65;;;;;;;15.39;82.31;102256.13;5030697;28;20057;-64
2022/06/17 01:44:33;;;;;;;18.02;12.60;;;;;;;15.33;82.04;102247.81;5030651;28;20037;-64
2022/06/17 01:47:02;;;;;;;21.27;13.43;;;;;;;15.26;81.99;102251.44;5030382;28;20057;-64
2022/06/17 01:49:35;;;;;;;19.30;12.98;;;;;;;15.19;82.43;102248.69;5030483;28;20033;-64
2022/06/17 01:52:22;;;;;;;18.45;12.82;;;;;;;15.18;82.81;102252.41;5030470;28;20025;-64
2022/06/17 01:55:03;;;;;;;18.88;12.32;;;;;;;15.21;83.24;102257.41;5030491;28;20506;-64
2022/06/17 01:57:35;;;;;;;17.10;12.25;;;;;;;15.18;83.94;102255.09;5030181;28;20068;-64
2022/06/17 02:00:11;;;;;;;19.20;13.88;;;;;;;15.15;84.40;102266.25;5030302;28;20040;-65
2022/06/17 02:02:39;;;;;;;29.52;13.73;;;;;;;15.12;83.93;102258.56;5030311;28;20124;-64
2022/06/17 02:05:07;;;;;;;22.90;11.80;;;;;;;15.15;83.71;102263.56;5030244;28;20996;-65
2022/06/17 02:07:52;;;;;;;17.48;12.43;;;;;;;15.13;83.59;102254.84;5030168;28;20065;-64
2022/06/17 02:10:19;;;;;;;18.58;12.55;;;;;;;15.17;84.24;102266.88;5030253;28;20033;-64
2022/06/17 02:12:44;;;;;;;21.02;13.07;;;;;;;15.09;82.58;102267.00;5030219;28;20033;-64
2022/06/17 02:15:11;;;;;;;18.80;13.75;;;;;;;15.05;82.55;102263.88;5030237;28;20033;-64
2022/06/17 02:17:41;;;;;;;16.15;11.38;;;;;;;15.07;83.55;102264.50;5030147;28;20032;-64
2022/06/17 02:20:09;;;;;;;20.48;12.73;;;;;;;15.06;83.30;102260.16;5030079;28;20021;-65
2022/06/17 02:22:36;;;;;;;18.95;11.85;;;;;;;15.01;82.91;102259.06;5030007;28;20037;-64
2022/06/17 02:25:06;;;;;;;17.80;12.80;;;;;;;14.96;83.73;102262.34;5029972;28;20563;-65
2022/06/17 02:27:34;;;;;;;21.48;13.10;;;;;;;14.88;82.79;102260.59;5029769;28;20072;-64
2022/06/17 02:30:01;;;;;;;17.23;12.07;;;;;;;14.87;83.66;102266.16;5029756;28;20033;-64
2022/06/17 02:32:28;;;;;;;17.35;11.82;;;;;;;14.87;83.63;102269.66;5029867;28;20396;-64
2022/06/17 02:35:03;;;;;;;17.95;12.05;;;;;;;14.88;83.99;102260.59;5029805;28;20033;-64
2022/06/17 02:37:30;;;;;;;17.98;11.32;;;;;;;14.86;84.71;102257.28;5029760;28;20026;-64
2022/06/17 02:39:59;;;;;;;17.98;12.35;;;;;;;14.87;85.26;102258.91;5029700;28;20033;-65
2022/06/17 02:42:35;;;;;;;18.80;12.57;;;;;;;14.86;83.96;102254.59;5029828;28;20370;-64
2022/06/17 02:45:23;;;;;;;19.05;11.90;;;;;;;14.85;83.48;102258.28;5029668;28;20033;-65
2022/06/17 02:47:49;;;;;;;18.20;11.90;;;;;;;14.84;84.15;102256.63;5029261;28;20500;-64
2022/06/17 02:50:21;;;;;;;17.95;11.70;;;;;;;14.84;83.59;102255.78;5011891;28;20044;-64
2022/06/17 02:52:48;;;;;;;16.17;11.45;;;;;;;14.86;83.55;102257.28;5029484;28;20112;-64
2022/06/17 02:55:23;;;;;;;17.92;11.55;;;;;;;14.87;83.36;102256.25;5029475;28;20025;-64
2022/06/17 02:57:49;;;;;;;17.40;12.27;;;;;;;14.89;82.95;102251.50;5029499;28;20088;-64
2022/06/17 03:00:20;;;;;;;17.13;12.43;;;;;;;14.90;81.66;102245.09;5029342;28;20469;-64
2022/06/17 03:02:53;;;;;;;20.47;13.47;;;;;;;14.95;81.62;102241.03;5029427;28;20025;-64
2022/06/17 03:05:25;;;;;;;21.10;12.82;;;;;;;15.03;80.54;102246.28;5029039;28;20396;-64
2022/06/17 03:07:51;;;;;;;21.58;12.95;;;;;;;15.05;80.34;102247.75;5029314;28;20022;-64
2022/06/17 03:10:27;;;;;;;20.58;13.23;;;;;;;15.08;80.02;102243.84;5028964;28;20037;-64
2022/06/17 03:13:00;;;;;;;18.23;12.27;;;;;;;15.11;79.91;102244.28;5029202;28;20033;-66
2022/06/17 03:15:26;;;;;;;18.65;12.48;;;;;;;15.13;79.79;102242.22;5029235;28;20044;-66
2022/06/17 03:17:51;;;;;;;19.45;12.57;;;;;;;15.14;79.32;102245.75;5029286;28;20033;-66
2022/06/17 03:20:34;;;;;;;18.00;12.65;;;;;;;15.20;79.18;102249.53;5029152;28;20116;-66
2022/06/17 03:23:23;;;;;;;17.20;12.60;;;;;;;15.20;80.15;102253.06;5028692;28;20056;-67
2022/06/17 03:26:00;;;;;;;19.08;12.20;;;;;;;15.15;80.48;102255.50;5028360;28;20040;-67
2022/06/17 03:28:41;;;;;;;18.08;11.50;;;;;;;15.06;80.68;102254.78;5029030;28;20072;-67
2022/06/17 03:31:16;;;;;;;17.95;11.95;;;;;;;15.07;81.88;102263.69;5029027;28;20380;-67
2022/06/17 03:33:51;;;;;;;18.63;13.00;;;;;;;15.04;82.35;102264.06;5029269;28;20025;-67
2022/06/17 03:36:49;;;;;;;18.95;13.40;;;;;;;15.05;81.84;102268.41;5029118;28;20060;-67
2022/06/17 03:39:21;;;;;;;17.65;13.07;;;;;;;15.04;82.36;102280.19;5026799;28;20370;-67
2022/06/17 03:41:55;;;;;;;17.83;13.07;;;;;;;15.03;82.82;102278.50;5028948;28;20034;-67
2022/06/17 03:44:26;;;;;;;18.10;12.45;;;;;;;15.03;83.45;102284.72;5028960;28;20033;-66
2022/06/17 03:47:25;;;;;;;20.63;12.93;;;;;;;15.09;82.62;102286.66;5028495;28;20136;-66
2022/06/17 03:49:56;;;;;;;23.13;15.40;;;;;;;15.11;83.99;102291.81;5021340;28;20045;-66
2022/06/17 03:52:21;;;;;;;21.50;13.95;;;;;;;15.11;85.04;102287.28;5028764;28;20036;-66
2022/06/17 03:54:47;;;;;;;20.57;14.77;;;;;;;15.08;85.01;102284.97;5028710;28;20116;-66
2022/06/17 03:57:15;;;;;;;20.15;13.73;;;;;;;15.11;85.18;102283.75;5028829;28;20279;-66
2022/06/17 03:59:45;;;;;;;22.48;14.80;;;;;;;15.19;85.32;102285.50;5028832;28;20040;-66
2022/06/17 04:02:14;;;;;;;21.40;14.23;;;;;;;15.27;85.41;102286.22;5028726;28;20029;-66
2022/06/17 04:04:51;;;;;;;21.05;14.70;;;;;;;15.36;84.42;102283.38;5028780;28;20025;-66
2022/06/17 04:07:17;;;;;;;17.83;13.13;;;;;;;15.43;81.63;102287.81;5028635;28;20031;-66
2022/06/17 04:09:45;;;;;;;25.33;14.13;;;;;;;15.50;84.01;102287.84;5028667;28;20084;-67
2022/06/17 04:12:14;;;;;;;19.63;13.90;;;;;;;15.56;81.91;102287.06;5028679;28;20053;-67
2022/06/17 04:14:49;;;;;;;19.55;14.27;;;;;;;15.66;82.73;102286.72;5028624;28;20052;-67
2022/06/17 04:17:25;;;;;;;21.05;14.25;;;;;;;15.72;81.54;102289.50;5028285;28;20037;-67
2022/06/17 04:20:12;;;;;;;22.20;14.68;;;;;;;15.78;82.25;102286.03;5028728;28;20104;-67
2022/06/17 04:22:40;;;;;;;19.50;13.90;;;;;;;15.74;78.71;102276.69;5024684;28;20033;-67
2022/06/17 04:25:10;;;;;;;19.35;13.90;;;;;;;15.82;78.97;102272.19;5032149;28;20033;-66
2022/06/17 04:30:24;;;;;;;22.27;14.75;;;;;;;15.87;77.35;102267.88;5031144;28;20043;-66
2022/06/17 04:32:55;;;;;;;23.67;15.10;;;;;;;15.89;77.17;102263.13;5032088;28;20029;-66
2022/06/17 04:35:20;;;;;;;19.23;13.57;;;;;;;15.94;77.09;102265.22;5032022;28;20036;-66
2022/06/17 04:37:46;;;;;;;20.55;14.88;;;;;;;15.96;76.79;102269.41;5031819;28;20033;-67
2022/06/17 04:40:30;;;;;;;19.45;13.23;;;;;;;16.00;76.92;102267.94;5031542;28;20044;-67
2022/06/17 04:42:58;;;;;;;19.65;13.77;;;;;;;16.02;76.74;102264.25;5031932;28;20116;-67
2022/06/17 04:45:26;;;;;;;20.90;13.88;;;;;;;16.02;76.81;102262.38;5031803;28;20524;-66
2022/06/17 04:47:52;;;;;;;20.27;14.00;;;;;;;16.05;75.86;102256.59;5031577;28;20052;-66
2022/06/17 04:50:21;;;;;;;19.42;13.63;;;;;;;16.08;76.05;102258.88;5031502;28;20484;-66
2022/06/17 04:52:49;;;;;;;19.45;13.60;;;;;;;16.13;75.88;102261.00;5031596;28;20025;-66
2022/06/17 04:55:20;;;;;;;22.77;14.80;;;;;;;16.17;76.05;102262.28;5031627;28;20021;-66
2022/06/17 04:57:47;;;;;;;20.00;13.88;;;;;;;16.17;75.91;102255.00;5031629;28;20108;-67
2022/06/17 05:00:19;;;;;;;19.27;13.00;;;;;;;16.19;75.97;102252.97;5031526;28;20111;-67
2022/06/17 05:02:44;;;;;;;19.95;14.05;;;;;;;16.23;76.02;102244.47;5031342;28;20890;-67
2022/06/17 05:05:14;;;;;;;21.27;14.88;;;;;;;16.23;75.98;102244.47;5031439;28;20025;-67
2022/06/17 05:07:49;;;;;;;21.30;13.80;;;;;;;16.29;75.80;102251.75;5031446;28;20385;-67
2022/06/17 05:10:22;;;;;;;20.15;13.63;;;;;;;16.32;76.53;102249.50;5031452;28;20041;-67
2022/06/17 05:13:17;;;;;;;23.42;15.25;;;;;;;16.36;75.94;102252.63;5031065;28;20439;-67
2022/06/17 05:15:43;;;;;;;21.15;13.90;;;;;;;16.39;75.32;102258.41;5028912;28;20404;-67
2022/06/17 05:18:09;;;;;;;20.15;13.98;;;;;;;16.44;75.50;102253.25;5031111;28;20026;-67
2022/06/17 05:20:34;;;;;;;18.63;13.75;;;;;;;16.52;75.38;102248.75;5031310;28;20053;-67
2022/06/17 05:23:03;;;;;;;21.08;14.40;;;;;;;16.61;75.57;102252.91;5031112;28;20381;-67
2022/06/17 05:25:32;;;;;;;20.67;14.20;;;;;;;16.74;74.00;102244.88;5030908;28;20036;-67
2022/06/17 05:27:58;;;;;;;21.30;14.25;;;;;;;16.90;73.46;102245.53;5030791;28;20032;-67
2022/06/17 05:30:24;;;;;;;20.60;12.98;;;;;;;17.02;73.33;102238.53;5029531;28;20389;-67
2022/06/17 05:32:53;;;;;;;22.05;13.50;;;;;;;17.12;72.99;102246.22;5030928;28;20041;-67
2022/06/17 05:35:20;;;;;;;19.40;13.13;;;;;;;17.20;73.54;102246.84;5030371;28;20043;-67
2022/06/17 05:37:46;;;;;;;22.92;14.40;;;;;;;17.32;72.73;102247.06;5030690;28;20116;-67
2022/06/17 05:40:12;;;;;;;20.83;13.95;;;;;;;17.39;71.90;102255.13;5030725;28;20029;-67
2022/06/17 05:42:39;;;;;;;21.23;14.50;;;;;;;17.47;71.81;102255.75;5030578;28;20044;-67
2022/06/17 05:45:05;;;;;;;19.48;12.45;;;;;;;17.52;72.67;102257.84;5030556;28;20087;-67
2022/06/17 05:47:30;;;;;;;18.63;11.88;;;;;;;17.57;71.04;102257.22;5030362;28;20416;-67
2022/06/17 05:49:56;;;;;;;18.58;12.23;;;;;;;17.62;72.23;102265.50;5030478;28;20029;-67
2022/06/17 05:52:21;;;;;;;18.98;12.25;;;;;;;17.67;71.62;102257.63;5029135;28;20131;-67
2022/06/17 05:54:47;;;;;;;20.55;12.43;;;;;;;17.75;70.81;102257.41;5030447;28;20124;-67
2022/06/17 05:57:12;;;;;;;19.35;12.10;;;;;;;17.80;71.32;102256.81;5030514;28;20063;-67
2022/06/17 05:59:38;;;;;;;22.75;11.55;;;;;;;17.81;71.16;102250.34;5030368;28;20067;-67
2022/06/17 06:02:04;;;;;;;18.58;12.45;;;;;;;17.86;70.29;102245.16;5030499;28;20041;-67
2022/06/17 06:04:31;;;;;;;23.88;12.45;;;;;;;17.92;69.77;102228.97;5030365;28;20392;-67
2022/06/17 06:06:57;;;;;;;19.33;12.77;;;;;;;17.98;69.34;102223.75;5029508;28;20489;-67
2022/06/17 06:09:22;;;;;;;20.83;12.60;;;;;;;18.03;69.63;102215.84;5030129;28;20029;-67
2022/06/17 06:11:47;;;;;;;17.80;11.90;;;;;;;18.09;70.15;102228.50;5030190;28;20045;-66
2022/06/17 06:14:13;;;;;;;17.75;11.65;;;;;;;18.11;69.43;102227.25;5029791;28;20136;-66
2022/06/17 06:16:38;;;;;;;22.52;12.50;;;;;;;18.11;69.90;102221.84;5030009;28;20100;-66
2022/06/17 06:19:04;;;;;;;18.75;12.35;;;;;;;18.13;69.63;102222.47;5030156;28;20472;-66
2022/06/17 06:21:30;;;;;;;17.55;11.45;;;;;;;18.17;69.22;102214.75;5029970;28;20048;-66
2022/06/17 06:23:56;;;;;;;18.30;10.73;;;;;;;18.21;69.97;102221.41;5029799;28;20033;-66
2022/06/17 06:26:22;;;;;;;18.55;11.98;;;;;;;18.25;70.90;102209.09;5029848;28;20029;-66
2022/06/17 06:28:48;;;;;;;20.25;13.35;;;;;;;18.34;70.72;102213.22;5029693;28;20052;-66
2022/06/17 06:31:35;;;;;;;17.85;12.43;;;;;;;18.48;70.03;102213.16;5029819;28;20064;-66
2022/06/17 06:34:00;;;;;;;19.50;11.82;;;;;;;18.54;69.51;102212.28;5029860;28;20028;-67
2022/06/17 06:36:25;;;;;;;18.60;12.60;;;;;;;18.63;68.29;102219.13;5029718;28;20033;-67
2022/06/17 06:38:51;;;;;;;18.10;13.07;;;;;;;18.71;68.85;102235.06;5029589;28;20502;-67
2022/06/17 06:41:21;;;;;;;19.80;12.50;;;;;;;18.80;67.76;102231.06;5029592;28;20433;-68
2022/06/17 06:43:47;;;;;;;26.52;13.40;;;;;;;18.86;68.05;102229.38;5029594;28;20033;-66
2022/06/17 06:46:15;;;;;;;17.98;11.65;;;;;;;18.94;68.65;102239.09;5028607;28;20114;-66
2022/06/17 06:48:42;;;;;;;19.75;11.65;;;;;;;18.96;67.47;102237.84;5029187;28;20584;-67
2022/06/17 06:51:07;;;;;;;21.02;11.73;;;;;;;18.96;66.75;102229.72;5029384;28;20685;-66
2022/06/17 06:53:33;;;;;;;18.02;10.85;;;;;;;19.01;67.26;102231.78;5029591;28;20033;-66
2022/06/17 06:55:58;;;;;;;18.33;10.35;;;;;;;19.05;66.35;102223.00;5029494;28;20029;-67
2022/06/17 06:58:25;;;;;;;15.93;10.95;;;;;;;19.08;65.95;102220.91;5025106;28;20472;-67
2022/06/17 07:00:54;;;;;;;19.98;9.65;;;;;;;19.09;66.40;102231.50;5024750;28;20091;-67
2022/06/17 07:03:20;;;;;;;16.50;10.70;;;;;;;19.13;66.69;102237.31;5024941;28;20079;-66
2022/06/17 07:05:48;;;;;;;13.75;9.82;;;;;;;19.16;66.46;102236.88;5029117;28;20385;-67
2022/06/17 07:08:16;;;;;;;15.93;9.32;;;;;;;19.20;64.92;102236.22;5029238;28;20376;-67
2022/06/17 07:10:43;;;;;;;19.17;10.63;;;;;;;19.23;65.77;102238.47;5029308;28;20088;-67
2022/06/17 07:13:09;;;;;;;13.32;9.18;;;;;;;19.30;65.12;102235.72;5029206;28;20037;-67
2022/06/17 07:15:38;;;;;;;13.43;8.68;;;;;;;19.34;65.20;102241.53;5029451;28;20068;-67
2022/06/17 07:18:24;;;;;;;15.23;9.18;;;;;;;19.41;66.25;102240.41;5029176;28;20044;-68
2022/06/17 07:20:53;;;;;;;17.27;9.93;;;;;;;19.53;64.84;102242.38;5029196;28;20036;-67
2022/06/17 07:23:24;;;;;;;17.17;9.25;;;;;;;19.59;63.71;102234.19;5029109;28;20025;-67
2022/06/17 07:25:51;;;;;;;15.45;9.70;;;;;;;19.75;67.49;102237.41;5029198;28;20120;-67
2022/06/17 07:28:20;;;;;;;17.23;9.65;;;;;;;19.88;64.12;102238.09;5028927;28;20029;-67
2022/06/17 07:30:48;;;;;;;18.95;9.55;;;;;;;20.00;62.85;102226.53;5011630;28;20393;-67
2022/06/17 07:33:15;;;;;;;17.92;9.80;;;;;;;20.11;63.39;102213.03;5029111;28;20053;-73
2022/06/17 07:35:41;;;;;;;15.18;9.00;;;;;;;20.23;61.80;102207.69;5028871;28;20056;-69
2022/06/17 07:40:57;;;;;;;11.63;7.72;;;;;;;20.43;61.56;102209.31;5029127;28;20056;-72
2022/06/17 07:43:22;;;;;;;19.30;9.05;;;;;;;20.48;63.06;102215.69;5029027;28;20041;-70
2022/06/17 07:45:48;;;;;;;15.85;9.15;;;;;;;20.61;61.02;102225.56;5029095;28;20096;-69
2022/06/17 07:48:15;;;;;;;11.18;7.68;;;;;;;20.70;59.92;102223.38;5028737;28;20049;-68
2022/06/17 07:50:41;;;;;;;22.13;8.65;;;;;;;20.83;58.06;102231.31;5028902;28;20037;-69
2022/06/17 07:53:08;;;;;;;13.50;6.60;;;;;;;20.97;57.32;102245.47;5028983;28;20041;-68
2022/06/17 07:55:34;;;;;;;14.52;6.18;;;;;;;21.08;55.72;102246.56;5028648;28;20037;-68
2022/06/17 07:58:00;;;;;;;10.80;6.55;;;;;;;21.28;58.05;102240.81;5031283;28;20547;-67
2022/06/17 08:00:33;;;;;;;11.27;7.68;;;;;;;21.41;56.28;102235.22;5032651;28;20037;-67
2022/06/17 08:02:59;;;;;;;11.57;6.85;;;;;;;21.56;56.59;102235.56;5032384;28;20033;-67
2022/06/17 08:05:24;;;;;;;9.80;6.63;;;;;;;21.74;54.80;102225.63;5032646;28;20100;-67
2022/06/17 08:07:50;;;;;;;13.02;7.32;;;;;;;22.10;53.04;102222.59;5032581;28;20922;-69
2022/06/17 08:10:18;;;;;;;11.80;6.47;;;;;;;23.32;50.64;102217.78;5032413;28;20504;-71
2022/06/17 08:12:44;;;;;;;10.27;6.45;;;;;;;25.26;46.45;102227.41;5032428;28;20484;-69
2022/06/17 08:15:12;;;;;;;10.27;6.00;;;;;;;26.81;41.86;102232.47;5032286;28;20033;-70
2022/06/17 08:17:38;;;;;;;12.00;6.25;;;;;;;27.96;39.44;102237.25;5032305;28;20120;-70
2022/06/17 08:20:09;;;;;;;12.98;6.53;;;;;;;28.88;36.74;102246.09;5032276;28;20071;-69
2022/06/17 08:22:36;;;;;;;8.67;6.03;;;;;;;29.86;35.36;102242.13;5032258;28;20128;-69
2022/06/17 08:25:02;;;;;;;9.75;5.90;;;;;;;30.29;34.27;102252.38;5031986;28;20124;-69
2022/06/17 08:27:28;;;;;;;13.60;6.00;;;;;;;30.84;33.49;102249.06;5032122;28;20025;-69
2022/06/17 08:29:53;;;;;;;10.40;5.35;;;;;;;31.26;33.01;102239.81;5031931;28;20041;-70
2022/06/17 08:35:03;;;;;;;9.73;5.70;;;;;;;29.43;34.10;102241.22;5031293;28;20110;-69
2022/06/17 08:37:31;;;;;;;9.10;5.90;;;;;;;28.65;35.76;102240.22;5031907;28;20033;-69
2022/06/17 08:39:57;;;;;;;9.90;5.47;;;;;;;28.22;36.37;102239.06;5032042;28;20025;-70
2022/06/17 08:42:33;;;;;;;10.00;4.35;;;;;;;27.81;36.95;102242.00;5032106;28;20388;-69
2022/06/17 08:45:04;;;;;;;8.13;5.53;;;;;;;27.35;39.04;102237.38;5031704;28;20041;-70
2022/06/17 08:48:11;;;;;;;9.25;5.03;;;;;;;26.99;41.80;102226.44;5031499;28;20053;-69
2022/06/17 08:51:07;;;;;;;7.50;5.00;;;;;;;26.37;41.21;102220.03;5009433;28;20030;-69
2022/06/17 08:53:51;;;;;;;10.88;5.82;;;;;;;26.05;44.09;102203.00;5031426;28;20083;-70
2022/06/17 08:56:40;;;;;;;8.55;5.82;;;;;;;25.76;43.13;102212.41;5031431;28;20052;-70
2022/06/17 08:59:34;;;;;;;8.23;5.03;;;;;;;25.64;43.57;102213.72;5020223;28;20096;-70
2022/06/17 09:02:20;;;;;;;7.40;4.85;;;;;;;25.73;43.41;102218.41;5030027;28;20067;-69
2022/06/17 09:04:54;;;;;;;11.13;5.22;;;;;;;25.92;41.15;102228.91;5031438;28;20083;-70
2022/06/17 09:07:22;;;;;;;10.23;4.57;;;;;;;25.89;41.19;102235.75;5031457;28;20048;-70
2022/06/17 09:10:19;;;;;;;8.00;4.78;;;;;;;25.71;42.83;102231.50;5030466;28;20025;-69
2022/06/17 09:13:12;;;;;;;15.27;6.15;;;;;;;25.51;43.76;102226.75;5031190;28;20067;-70
2022/06/17 09:15:45;;;;;;;9.57;4.35;;;;;;;25.41;43.01;102223.94;5031093;28;20033;-69
2022/06/17 09:18:16;;;;;;;7.97;5.10;;;;;;;25.40;43.39;102235.16;5031274;28;20076;-69
2022/06/17 09:20:44;;;;;;;7.25;4.15;;;;;;;25.38;43.92;102231.84;5031196;28;20377;-69
2022/06/17 09:23:13;;;;;;;8.65;4.90;;;;;;;25.31;44.46;102222.00;5031035;28;20025;-69
2022/06/17 09:25:42;;;;;;;9.25;4.55;;;;;;;25.27;45.48;102211.84;5030883;28;20033;-69
2022/06/17 09:28:35;;;;;;;10.15;6.00;;;;;;;25.21;44.35;102210.16;5029512;28;20901;-69
2022/06/17 09:31:09;;;;;;;12.73;4.82;;;;;;;25.03;43.10;102208.63;5030984;28;20095;-70
2022/06/17 09:33:54;;;;;;;8.05;4.30;;;;;;;25.04;44.37;102205.63;5030867;28;20026;-69
2022/06/17 09:36:37;;;;;;;8.88;4.20;;;;;;;25.25;45.60;102214.81;5030926;28;20068;-69
2022/06/17 09:39:11;;;;;;;7.43;3.92;;;;;;;25.39;44.92;102211.63;5030794;28;20036;-69
2022/06/17 09:41:43;;;;;;;5.25;3.22;;;;;;;25.48;43.09;102210.88;5030815;28;20033;-69
2022/06/17 09:44:23;;;;;;;7.43;3.47;;;;;;;25.55;41.55;102207.94;5030700;28;20029;-70
2022/06/17 09:46:56;;;;;;;6.53;3.05;;;;;;;25.65;42.19;102215.34;5030887;28;20081;-69
2022/06/17 09:49:34;;;;;;;4.22;3.15;;;;;;;25.71;39.79;102219.75;5030587;28;20076;-69
2022/06/17 09:52:05;;;;;;;5.07;3.03;;;;;;;25.72;41.11;102216.75;5030581;28;20037;-70
2022/06/17 09:55:04;;;;;;;8.20;3.55;;;;;;;25.76;40.18;102226.06;5030555;28;20060;-69
2022/06/17 09:58:03;;;;;;;4.07;3.67;;;;;;;25.75;40.97;102226.31;5029890;28;20040;-70
2022/06/17 10:00:35;;;;;;;8.27;3.22;;;;;;;25.67;39.92;102216.72;5030199;28;20052;-69
2022/06/17 10:03:23;;;;;;;8.30;3.38;;;;;;;25.71;40.43;102217.03;5030357;28;20036;-70
2022/06/17 10:06:00;;;;;;;10.25;3.45;;;;;;;25.82;44.43;102216.00;5030293;28;20033;-70
2022/06/17 10:08:56;;;;;;;8.48;4.35;;;;;;;26.02;41.77;102218.84;5030198;28;20115;-70
2022/06/17 10:11:25;;;;;;;4.25;3.20;;;;;;;26.00;41.02;102209.25;5028948;28;20115;-70
2022/06/17 10:14:06;;;;;;;4.80;3.00;;;;;;;25.95;38.71;102195.56;5030152;28;20060;-70
2022/06/17 10:19:31;;;;;;;7.88;3.55;;;;;;;26.18;40.80;102180.63;5030107;28;19927;-70
2022/06/17 10:22:03;;;;;;;6.32;3.13;;;;;;;26.36;40.89;102182.84;5030023;28;20083;-70
2022/06/17 10:25:08;;;;;;;9.48;3.78;;;;;;;26.51;41.31;102184.75;5029909;28;20112;-69
2022/06/17 10:27:53;;;;;;;5.40;3.17;;;;;;;26.43;40.51;102188.03;5029545;28;20041;-73
2022/06/17 10:30:38;;;;;;;6.95;3.58;;;;;;;26.46;40.23;102165.59;5029961;28;20082;-69
2022/06/17 10:33:03;;;;;;;7.18;4.22;;;;;;;26.47;40.29;102169.19;5029830;28;20034;-69
2022/06/17 10:35:34;;;;;;;10.80;3.13;;;;;;;26.49;40.81;102175.19;5029700;28;20036;-69
2022/06/17 10:38:03;;;;;;;9.07;3.47;;;;;;;26.53;42.56;102163.47;5029874;28;20508;-69
2022/06/17 10:40:31;;;;;;;9.18;3.63;;;;;;;26.63;43.28;102158.00;5029718;28;20026;-69
2022/06/17 10:43:02;;;;;;;4.35;3.30;;;;;;;26.75;39.69;102165.09;5029534;28;20029;-69
2022/06/17 10:45:28;;;;;;;6.35;3.95;;;;;;;26.79;39.80;102161.56;5029664;28;20079;-69
2022/06/17 10:48:00;;;;;;;8.52;3.63;;;;;;;26.82;39.23;102176.59;5029374;28;20054;-69
2022/06/17 10:50:29;;;;;;;9.25;4.95;;;;;;;26.82;39.24;102158.25;5029475;28;20053;-69
2022/06/17 10:53:21;;;;;;;9.52;3.50;;;;;;;27.00;39.54;102151.41;5029436;28;20103;-69
2022/06/17 10:55:50;;;;;;;6.10;3.30;;;;;;;27.15;40.00;102166.19;5029595;28;20505;-69
2022/06/17 10:58:19;;;;;;;4.32;3.53;;;;;;;27.25;40.52;102160.72;5029447;28;20114;-69
2022/06/17 11:00:52;;;;;;;6.93;2.65;;;;;;;27.29;38.93;102157.13;5029374;28;20040;-69
2022/06/17 11:03:22;;;;;;;4.40;3.28;;;;;;;27.37;37.43;102154.91;5029200;28;20100;-69
2022/06/17 11:06:03;;;;;;;4.78;3.15;;;;;;;27.50;37.88;102152.41;5029281;28;20030;-69
2022/06/17 11:08:34;;;;;;;4.63;3.63;;;;;;;27.53;36.68;102146.34;5028914;28;20114;-69
2022/06/17 11:13:50;;;;;;;5.18;2.88;;;;;;;27.53;39.11;102142.81;5029426;28;20450;-69
2022/06/17 11:16:22;;;;;;;5.78;4.05;;;;;;;27.62;36.52;102143.06;5027954;28;20385;-69
2022/06/17 11:19:01;;;;;;;10.27;4.15;;;;;;;27.63;37.69;102131.00;5029365;28;20041;-69
2022/06/17 11:21:34;;;;;;;5.95;3.40;;;;;;;27.54;36.89;102136.25;5029126;28;20539;-69
2022/06/17 11:24:01;;;;;;;8.90;3.47;;;;;;;27.60;38.58;102128.81;5029096;28;20033;-70
2022/06/17 11:26:30;;;;;;;5.13;2.90;;;;;;;27.62;38.73;102126.63;5029109;28;20096;-69
2022/06/17 11:29:21;;;;;;;8.63;3.30;;;;;;;27.77;38.58;102123.78;5029030;28;20469;-69
2022/06/17 11:31:49;;;;;;;3.67;3.20;;;;;;;27.83;39.02;102119.16;5024063;28;20136;-69
2022/06/17 11:34:24;;;;;;;6.40;3.67;;;;;;;27.77;38.14;102104.59;5032914;28;20272;-69
2022/06/17 11:37:13;;;;;;;5.70;3.45;;;;;;;27.75;37.34;102101.34;5033192;28;20029;-69
2022/06/17 11:39:38;;;;;;;7.53;3.58;;;;;;;27.80;39.28;102101.31;5033146;28;20473;-69
2022/06/17 11:42:24;;;;;;;3.60;3.08;;;;;;;27.85;40.42;102093.09;5031700;28;20116;-69
2022/06/17 11:44:54;;;;;;;7.28;3.95;;;;;;;27.93;39.19;102089.75;5032786;28;20040;-69
2022/06/17 11:47:22;;;;;;;6.65;3.97;;;;;;;27.96;39.48;102097.41;5032683;28;20049;-69
2022/06/17 11:49:48;;;;;;;6.80;3.20;;;;;;;28.02;35.76;102092.69;5032722;28;20123;-69
2022/06/17 11:52:28;;;;;;;5.70;3.35;;;;;;;28.15;38.27;102094.78;5032618;28;20396;-69